Terminal Aerodrome Forecast
Issued by NWS

Home | Current Version | Previous Version | Text Only | Print | Product List | Glossary On
Versions: 1 2 3 4 5 6 7 8 9 10 11 12 13 14 15 16 17 18 19 20 21 22 23
000
FTAK31 PAJN 231143
TAFAYA
TAF
PAYA 231143Z 2312/2412 32003KT 5SM BR SCT007 OVC012
      TEMPO 2312/2316 00000KT 2SM BR BKN003 OVC007
     FM231900 29006KT P6SM SCT025 SCT040
     FM232300 26012KT P6SM SCT025
      AMD LTD TO CLD VIS AND WIND 2401/2409=

USA.gov is the U.S. government's official web portal to all federal, state and local government web resources and services.